Time;durP1;ratioP1;P1;durP2;ratioP2;P2;SDS_P1;SDS_P2;PMS_P1;PMS_P2;Temp;Humidity;BMP_temperature;BMP_pressure;BME280_temperature;BME280_humidity;BME280_pressure;Samples;Min_cycle;Max_cycle;Signal;HPM_P1;HPM_P2
2022/10/03 00:02:21;;;;;;;4.28;2.50;;;;;;;13.34;75.45;98031.88;1719307;82;20946;-71
2022/10/03 00:05:14;;;;;;;7.40;3.12;;;;;;;13.32;75.46;98026.73;1719276;82;21050;-71
2022/10/03 00:07:55;;;;;;;3.50;2.17;;;;;;;13.29;75.46;98025.88;1702865;83;21857;-71
2022/10/03 00:11:02;;;;;;;3.90;2.55;;;;;;;13.28;75.53;98029.57;1719365;82;20927;-71
2022/10/03 00:13:39;;;;;;;3.20;1.95;;;;;;;13.28;75.68;98022.89;1719119;82;20943;-71
2022/10/03 00:16:21;;;;;;;2.87;2.08;;;;;;;13.27;75.57;98023.92;1719656;83;20942;-71
2022/10/03 00:19:06;;;;;;;4.60;2.40;;;;;;;13.26;75.51;98012.96;1719609;82;21534;-71
2022/10/03 00:22:17;;;;;;;4.83;2.83;;;;;;;13.25;75.54;98012.65;1718987;82;21172;-71
2022/10/03 00:25:13;;;;;;;3.60;2.33;;;;;;;13.21;75.62;98006.14;1719332;82;20971;-71
2022/10/03 00:27:50;;;;;;;3.95;2.42;;;;;;;13.18;75.65;98009.76;1719477;82;21583;-71
2022/10/03 00:30:21;;;;;;;5.47;2.72;;;;;;;13.17;75.83;98002.77;1719490;83;21563;-71
2022/10/03 00:33:06;;;;;;;4.22;2.58;;;;;;;13.17;75.89;98006.78;1719468;82;20991;-71
2022/10/03 00:36:09;;;;;;;3.50;2.50;;;;;;;13.19;75.91;98007.39;1724943;81;21131;-70
2022/10/03 00:38:50;;;;;;;5.25;2.67;;;;;;;13.19;75.90;98008.73;1740879;82;20879;-70
2022/10/03 00:41:25;;;;;;;3.95;2.92;;;;;;;13.20;75.88;98003.16;1722043;83;21429;-72
2022/10/03 00:44:51;;;;;;;5.28;2.90;;;;;;;13.20;75.92;97992.98;1722166;83;20958;-71
2022/10/03 00:47:52;;;;;;;4.25;2.37;;;;;;;13.20;76.00;97984.98;1720509;83;21488;-72
2022/10/03 00:50:39;;;;;;;3.77;2.35;;;;;;;13.16;76.19;97989.14;1722169;81;21185;-71
2022/10/03 00:53:43;;;;;;;5.40;2.33;;;;;;;13.10;76.33;97993.52;1721983;81;21058;-71
2022/10/03 00:56:31;;;;;;;3.87;2.50;;;;;;;13.07;76.42;97985.12;1719926;81;20952;-70
2022/10/03 00:59:17;;;;;;;3.83;2.42;;;;;;;13.06;76.64;97983.48;1722319;83;21065;-70
2022/10/03 01:01:47;;;;;;;6.65;3.02;;;;;;;13.05;76.71;97977.31;1722134;81;20863;-70
2022/10/03 01:04:25;;;;;;;3.65;2.98;;;;;;;13.06;76.77;97982.14;1722140;81;21244;-70
2022/10/03 01:07:16;;;;;;;5.92;2.55;;;;;;;13.07;76.83;97971.27;1721176;81;20986;-71
2022/10/03 01:10:08;;;;;;;3.92;2.50;;;;;;;13.08;76.82;97975.58;1722126;81;20938;-71
2022/10/03 01:13:10;;;;;;;4.60;2.77;;;;;;;13.07;76.73;97963.25;1702419;81;20954;-69
2022/10/03 01:16:12;;;;;;;2.52;2.15;;;;;;;13.04;76.68;97960.98;1722155;81;21405;-71
2022/10/03 01:19:01;;;;;;;5.85;2.58;;;;;;;12.97;76.78;97954.92;1714566;81;21434;-70
2022/10/03 01:22:00;;;;;;;3.42;2.22;;;;;;;12.92;76.87;97950.77;1721935;81;21050;-70
2022/10/03 01:24:59;;;;;;;4.62;2.12;;;;;;;12.88;76.94;97952.23;1721655;81;21531;-70
2022/10/03 01:30:41;;;;;;;4.33;2.62;;;;;;;12.72;77.16;97954.95;1722176;81;20998;-70
2022/10/03 01:33:22;;;;;;;7.87;2.67;;;;;;;12.65;77.22;97959.55;1702233;82;21139;-70
2022/10/03 01:36:06;;;;;;;4.08;2.22;;;;;;;12.64;77.40;97965.94;1718811;81;20915;-71
2022/10/03 01:38:50;;;;;;;4.03;2.15;;;;;;;12.66;77.51;97969.19;1689850;84;20944;-70
2022/10/03 01:41:38;;;;;;;3.87;1.92;;;;;;;12.68;77.57;97960.45;1715742;81;20974;-70
2022/10/03 01:44:25;;;;;;;3.20;2.00;;;;;;;12.69;77.53;97967.42;1702432;84;20917;-71
2022/10/03 01:47:10;;;;;;;4.22;2.30;;;;;;;12.68;77.48;97963.11;1723638;81;21168;-70
2022/10/03 01:50:00;;;;;;;5.17;2.25;;;;;;;12.66;77.33;97963.03;1717563;83;20898;-71
2022/10/03 01:52:44;;;;;;;4.70;2.08;;;;;;;12.58;77.36;97961.98;1702912;82;20932;-70
2022/10/03 01:55:49;;;;;;;5.40;2.33;;;;;;;12.49;77.44;97958.77;1722722;83;21001;-71
2022/10/03 01:58:30;;;;;;;3.05;1.80;;;;;;;12.42;77.50;97963.86;1731213;81;20999;-70
2022/10/03 02:01:27;;;;;;;4.30;2.02;;;;;;;12.35;77.70;97962.09;1732899;81;21296;-70
2022/10/03 02:04:23;;;;;;;2.85;2.10;;;;;;;12.34;77.89;97957.77;1726343;81;20934;-71
2022/10/03 02:07:16;;;;;;;3.93;2.07;;;;;;;12.34;77.98;97955.62;1732766;81;20975;-71
2022/10/03 02:09:52;;;;;;;3.47;2.00;;;;;;;12.29;77.94;97956.28;1729626;81;20906;-70
2022/10/03 02:12:33;;;;;;;2.27;2.08;;;;;;;12.29;78.14;97958.95;1726435;81;21072;-70
2022/10/03 02:15:09;;;;;;;4.90;2.35;;;;;;;12.31;78.29;97958.72;1726245;82;21506;-70
2022/10/03 02:17:58;;;;;;;4.42;2.17;;;;;;;12.35;78.44;97963.42;1733376;81;21452;-70
2022/10/03 02:20:30;;;;;;;;;;;;;;;12.41;78.50;97956.38;1744738;81;21431;-70
2022/10/03 02:22:58;;;;;;;6.45;2.42;;;;;;;12.50;78.54;97955.59;1726363;83;20202;-70
2022/10/03 02:26:13;;;;;;;4.90;2.30;;;;;;;12.59;78.49;97954.29;1726469;83;20941;-70
2022/10/03 02:29:17;;;;;;;4.58;2.35;;;;;;;12.63;78.48;97958.13;1722391;81;20971;-70
2022/10/03 02:32:12;;;;;;;6.67;2.27;;;;;;;12.68;78.42;97959.11;1689799;83;20945;-70
2022/10/03 02:34:56;;;;;;;4.72;2.42;;;;;;;12.72;78.25;97963.50;1703847;82;21440;-69
2022/10/03 02:37:53;;;;;;;4.87;2.42;;;;;;;12.78;78.14;97958.09;1731994;81;20914;-70
2022/10/03 02:40:51;;;;;;;4.33;2.72;;;;;;;12.81;78.04;97954.98;1718773;82;21084;-70
2022/10/03 02:43:42;;;;;;;3.05;2.42;;;;;;;12.81;77.96;97947.48;1732075;81;22068;-70
2022/10/03 02:46:39;;;;;;;5.37;2.98;;;;;;;12.79;77.93;97947.72;1726998;81;21051;-70
2022/10/03 02:49:46;;;;;;;2.98;2.52;;;;;;;12.80;77.95;97937.87;1722650;81;20910;-70
2022/10/03 02:52:53;;;;;;;5.25;3.27;;;;;;;12.82;77.96;97941.95;1732288;81;21519;-70
2022/10/03 02:55:36;;;;;;;4.15;2.98;;;;;;;12.81;77.85;97948.82;1706381;81;20945;-70
2022/10/03 02:58:37;;;;;;;4.53;3.00;;;;;;;12.82;77.75;97953.95;1732065;81;21136;-70
2022/10/03 03:01:50;;;;;;;3.50;2.90;;;;;;;12.84;77.67;97952.39;1717429;82;20846;-70
2022/10/03 03:04:56;;;;;;;4.35;3.17;;;;;;;12.85;77.49;97942.81;1732025;81;20961;-70
2022/10/03 03:07:35;;;;;;;4.03;2.90;;;;;;;12.83;77.32;97948.08;1732111;82;20954;-70
2022/10/03 03:10:30;;;;;;;5.75;3.15;;;;;;;12.82;77.34;97942.46;1732311;81;21511;-70
2022/10/03 03:13:08;;;;;;;3.55;3.25;;;;;;;12.80;77.24;97939.99;1732080;81;21162;-70
2022/10/03 03:16:14;;;;;;;6.28;3.10;;;;;;;12.79;77.09;97941.05;1732039;81;20938;-70
2022/10/03 03:19:06;;;;;;;4.55;3.20;;;;;;;12.79;76.98;97940.23;1732091;81;20988;-70
2022/10/03 03:21:41;;;;;;;3.92;2.72;;;;;;;12.77;76.64;97936.97;1725105;82;20990;-70
2022/10/03 03:24:44;;;;;;;4.92;3.10;;;;;;;12.77;76.58;97934.30;1732145;81;20950;-70
2022/10/03 03:27:51;;;;;;;4.17;2.80;;;;;;;12.78;76.44;97929.24;1731936;81;21150;-70
2022/10/03 03:30:22;;;;;;;3.80;2.75;;;;;;;12.80;76.49;97925.86;1731956;81;21499;-71
2022/10/03 03:33:27;;;;;;;6.08;3.12;;;;;;;12.81;76.54;97926.95;1732073;81;20956;-70
2022/10/03 03:36:05;;;;;;;4.83;3.08;;;;;;;12.83;76.48;97927.55;1731948;81;20993;-71
2022/10/03 03:39:11;;;;;;;5.37;3.22;;;;;;;12.86;76.46;97926.28;1732838;82;21554;-71
2022/10/03 03:42:02;;;;;;;4.33;3.00;;;;;;;12.86;76.82;97915.61;1732124;81;22076;-72
2022/10/03 03:45:03;;;;;;;4.92;3.12;;;;;;;12.86;76.42;97914.28;1725859;81;21154;-70
2022/10/03 03:47:56;;;;;;;3.47;3.17;;;;;;;12.85;76.41;97908.66;1732032;81;21606;-70
2022/10/03 03:50:37;;;;;;;3.20;2.62;;;;;;;12.86;76.43;97907.61;1732041;81;20984;-69
2022/10/03 03:53:17;;;;;;;4.47;3.15;;;;;;;12.87;76.46;97902.58;1732001;81;20910;-70
2022/10/03 03:56:19;;;;;;;3.72;3.00;;;;;;;12.89;76.52;97900.49;1725015;81;21271;-70
2022/10/03 03:59:04;;;;;;;4.47;2.45;;;;;;;12.89;76.56;97903.98;1731142;81;20942;-71
2022/10/03 04:01:52;;;;;;;4.05;2.90;;;;;;;12.88;76.54;97899.67;1732173;82;21093;-70
2022/10/03 04:04:36;;;;;;;5.00;3.08;;;;;;;12.85;76.53;97893.44;1730151;82;20882;-70
2022/10/03 04:07:40;;;;;;;3.47;2.47;;;;;;;12.84;76.62;97897.16;1732059;81;21013;-70
2022/10/03 04:10:32;;;;;;;4.62;2.80;;;;;;;12.85;76.52;97901.98;1743216;81;21146;-70
2022/10/03 04:13:36;;;;;;;4.30;2.75;;;;;;;12.86;76.50;97898.27;1729920;82;20947;-70
2022/10/03 04:18:56;;;;;;;3.27;2.72;;;;;;;12.87;76.49;97891.91;1729647;81;20910;-71
2022/10/03 04:18:59;;;;;;;4.92;2.58;;;;;;;12.88;76.45;97893.52;1728111;81;20910;-69
2022/10/03 04:21:34;;;;;;;2.75;2.40;;;;;;;12.89;76.51;97888.48;1702949;83;20910;-70
2022/10/03 04:24:28;;;;;;;2.65;2.45;;;;;;;12.90;76.55;97894.12;1725010;82;21534;-70
2022/10/03 04:27:03;;;;;;;4.58;2.33;;;;;;;12.91;76.55;97887.22;1729801;81;21401;-70
2022/10/03 04:29:50;;;;;;;4.33;2.27;;;;;;;12.92;76.36;97884.86;1722961;81;21085;-70
2022/10/03 04:33:00;;;;;;;2.60;1.87;;;;;;;12.94;76.35;97892.63;1726318;82;21021;-70
2022/10/03 04:36:15;;;;;;;3.35;2.20;;;;;;;12.90;76.26;97885.61;1720285;81;21005;-70
2022/10/03 04:39:05;;;;;;;4.47;2.62;;;;;;;12.91;76.31;97886.40;1709539;83;21297;-70
2022/10/03 04:42:15;;;;;;;4.85;2.75;;;;;;;12.88;76.43;97882.84;1721984;81;21048;-70
2022/10/03 04:45:12;;;;;;;2.95;2.33;;;;;;;12.89;76.42;97883.14;1710058;81;21516;-72
2022/10/03 04:47:48;;;;;;;2.58;2.30;;;;;;;12.88;76.42;97880.98;1715823;81;21064;-71
2022/10/03 04:50:29;;;;;;;3.33;2.05;;;;;;;12.91;76.48;97887.73;1721643;83;20910;-72
2022/10/03 04:53:38;;;;;;;3.60;2.50;;;;;;;12.93;76.30;97879.01;1676966;81;21171;-71
2022/10/03 04:56:23;;;;;;;3.67;2.00;;;;;;;12.95;76.28;97881.75;1733157;81;20966;-71
2022/10/03 04:59:03;;;;;;;3.12;2.20;;;;;;;12.94;76.37;97874.77;1743477;81;21009;-71
2022/10/03 05:01:36;;;;;;;2.15;1.95;;;;;;;12.97;76.39;97883.67;1724124;81;20990;-70
2022/10/03 05:04:27;;;;;;;3.33;2.12;;;;;;;12.99;76.52;97879.43;1722982;81;20906;-70
2022/10/03 05:07:16;;;;;;;4.65;2.25;;;;;;;13.01;76.64;97874.67;1727438;81;21046;-70
2022/10/03 05:09:54;;;;;;;2.10;1.90;;;;;;;13.02;76.62;97873.65;1706204;83;21480;-70
2022/10/03 05:13:00;;;;;;;2.90;1.90;;;;;;;13.03;76.52;97873.13;1725013;81;21530;-70
2022/10/03 05:15:44;;;;;;;4.58;2.50;;;;;;;13.03;76.22;97865.13;1719493;81;20984;-70
2022/10/03 05:18:26;;;;;;;5.42;3.50;;;;;;;13.05;76.13;97875.05;1715278;81;21476;-70
2022/10/03 05:21:14;;;;;;;5.67;2.50;;;;;;;13.02;76.15;97874.98;1746684;80;21177;-70
2022/10/03 05:24:02;;;;;;;4.28;2.00;;;;;;;13.05;76.17;97872.38;1755447;81;20945;-71
2022/10/03 05:26:57;;;;;;;3.80;2.17;;;;;;;13.06;76.15;97880.19;1723669;82;20923;-71
2022/10/03 05:30:00;;;;;;;3.20;1.90;;;;;;;13.06;76.07;97878.85;1776324;80;20935;-70
2022/10/03 05:33:04;;;;;;;5.97;2.20;;;;;;;13.05;75.94;97864.38;1749030;80;20904;-71
2022/10/03 05:36:04;;;;;;;4.05;2.30;;;;;;;13.06;75.95;97866.84;1702926;83;21719;-70
2022/10/03 05:39:13;;;;;;;4.20;2.35;;;;;;;13.08;75.83;97877.31;1750541;80;21025;-70
2022/10/03 05:41:40;;;;;;;4.53;2.20;;;;;;;13.10;75.89;97868.03;1776377;80;21017;-71
2022/10/03 05:44:16;;;;;;;3.05;2.00;;;;;;;13.14;76.03;97866.53;1776295;80;20995;-72
2022/10/03 05:47:00;;;;;;;2.85;2.17;;;;;;;13.21;76.15;97859.27;1761639;81;21506;-72
2022/10/03 05:49:44;;;;;;;3.52;2.22;;;;;;;13.42;76.38;97860.63;1676215;81;21984;-71
2022/10/03 05:52:39;;;;;;;3.25;2.08;;;;;;;13.63;76.58;97862.24;1762493;81;20898;-73
2022/10/03 05:55:33;;;;;;;3.05;2.10;;;;;;;13.81;76.21;97855.22;1747174;81;21597;-73
2022/10/03 05:58:43;;;;;;;3.27;1.98;;;;;;;14.06;76.17;97859.83;1747345;81;21550;-73
2022/10/03 06:01:37;;;;;;;4.90;2.50;;;;;;;14.24;76.22;97849.03;1733631;81;21105;-73
2022/10/03 06:04:43;;;;;;;5.30;2.17;;;;;;;14.32;75.49;97847.89;1721850;81;21108;-73
2022/10/03 06:07:32;;;;;;;4.22;2.50;;;;;;;14.22;75.15;97858.63;1724735;82;20914;-72
2022/10/03 06:10:32;;;;;;;7.50;2.87;;;;;;;14.09;75.00;97856.70;1724228;81;21002;-74
2022/10/03 06:13:23;;;;;;;4.00;2.72;;;;;;;14.00;75.12;97855.43;1727351;81;20977;-73
2022/10/03 06:16:02;;;;;;;3.70;2.52;;;;;;;13.93;75.12;97855.52;1724722;81;21447;-73
2022/10/03 06:19:21;;;;;;;2.77;2.25;;;;;;;13.85;75.20;97857.19;1724618;81;21215;-73
2022/10/03 06:22:19;;;;;;;3.30;2.10;;;;;;;13.80;75.39;97851.72;1713739;83;20934;-73
2022/10/03 06:25:29;;;;;;;2.00;1.82;;;;;;;13.72;75.31;97857.91;1722855;82;21100;-73
2022/10/03 06:28:50;;;;;;;2.77;2.27;;;;;;;13.66;75.37;97853.50;1723550;82;20906;-73
2022/10/03 06:31:59;;;;;;;5.30;2.90;;;;;;;13.61;75.46;97854.98;1726689;83;20895;-73
2022/10/03 06:35:00;;;;;;;3.60;2.00;;;;;;;13.59;75.56;97850.91;1721466;81;21858;-74
2022/10/03 06:37:47;;;;;;;3.42;2.10;;;;;;;13.60;75.76;97861.91;1724471;81;20971;-72
2022/10/03 06:40:47;;;;;;;2.05;1.50;;;;;;;13.65;76.01;97863.38;1722591;81;20926;-72
2022/10/03 06:43:52;;;;;;;4.30;2.10;;;;;;;13.71;75.98;97862.47;1711899;82;21014;-72
2022/10/03 06:46:48;;;;;;;3.35;1.65;;;;;;;13.79;75.79;97870.67;1717588;81;21037;-73
2022/10/03 06:49:40;;;;;;;1.98;1.27;;;;;;;13.80;75.43;97868.27;1735669;81;21824;-73
2022/10/03 06:52:39;;;;;;;4.58;2.00;;;;;;;13.87;75.44;97859.65;1746969;80;20962;-71
2022/10/03 06:55:54;;;;;;;2.55;1.60;;;;;;;14.08;75.69;97857.22;1720218;81;21045;-72
2022/10/03 06:58:35;;;;;;;4.10;1.50;;;;;;;14.52;75.61;97854.51;1718066;81;21010;-71
2022/10/03 07:01:32;;;;;;;3.60;1.65;;;;;;;14.98;74.51;97856.31;1721955;81;21503;-73
2022/10/03 07:04:23;;;;;;;4.15;1.80;;;;;;;15.31;73.29;97851.58;1709250;83;21249;-72
2022/10/03 07:07:13;;;;;;;3.67;1.37;;;;;;;15.58;72.09;97849.98;1719954;81;21076;-75
2022/10/03 07:10:06;;;;;;;3.20;1.72;;;;;;;15.80;70.84;97845.53;1721798;81;21120;-75
2022/10/03 07:12:56;;;;;;;3.98;1.80;;;;;;;15.95;69.55;97849.83;1721725;83;21583;-74
2022/10/03 07:16:01;;;;;;;3.20;1.32;;;;;;;16.01;69.08;97851.52;1721543;81;20926;-73
2022/10/03 07:19:09;;;;;;;4.47;1.50;;;;;;;15.93;68.02;97851.92;1721808;81;21250;-72
2022/10/03 07:22:26;;;;;;;4.55;2.12;;;;;;;15.91;68.02;97845.17;1721742;81;20985;-73
2022/10/03 07:25:18;;;;;;;3.70;1.67;;;;;;;15.90;67.25;97840.33;1721843;81;20902;-73
2022/10/03 07:27:56;;;;;;;3.25;1.35;;;;;;;15.92;66.62;97850.83;1721948;81;20930;-71
2022/10/03 07:30:23;;;;;;;2.22;1.40;;;;;;;15.96;66.12;97842.57;1722020;83;20950;-74
2022/10/03 07:33:35;;;;;;;4.55;1.92;;;;;;;15.96;65.68;97857.33;1721927;81;21789;-75
2022/10/03 07:39:09;;;;;;;6.97;1.82;;;;;;;15.95;65.15;97838.28;1722181;81;20883;-72
2022/10/03 07:41:50;;;;;;;3.25;1.87;;;;;;;16.08;64.67;97842.77;1675530;84;21137;-71
2022/10/03 07:44:41;;;;;;;4.17;1.75;;;;;;;16.26;64.39;97849.77;1714535;81;20930;-73
2022/10/03 07:47:53;;;;;;;3.47;1.98;;;;;;;16.40;64.04;97846.23;1721965;81;20995;-74
2022/10/03 07:50:51;;;;;;;3.27;1.45;;;;;;;16.55;63.50;97845.13;1721814;81;20910;-73
2022/10/03 07:53:38;;;;;;;6.60;1.55;;;;;;;16.72;63.19;97833.80;1722012;81;21027;-72
2022/10/03 07:56:33;;;;;;;2.37;1.32;;;;;;;17.03;62.44;97837.15;1670227;83;20978;-73
2022/10/03 07:59:31;;;;;;;2.80;1.40;;;;;;;17.19;61.34;97830.08;1703117;83;21413;-72
2022/10/03 08:02:24;;;;;;;4.25;1.45;;;;;;;17.21;60.43;97826.07;1721865;81;21992;-72
2022/10/03 08:05:41;;;;;;;7.12;1.45;;;;;;;17.53;60.00;97841.48;1721931;81;20966;-71
2022/10/03 08:08:39;;;;;;;8.13;1.85;;;;;;;17.97;57.80;97826.83;1721973;81;21021;-74
2022/10/03 08:11:20;;;;;;;7.20;1.57;;;;;;;18.51;56.94;97834.78;1722042;81;20938;-74
2022/10/03 08:14:10;;;;;;;4.37;1.45;;;;;;;18.72;55.64;97831.14;1721984;81;21076;-74
2022/10/03 08:16:51;;;;;;;2.85;1.22;;;;;;;18.95;55.40;97826.10;1721863;81;21989;-72
2022/10/03 08:19:38;;;;;;;4.30;1.45;;;;;;;18.85;55.10;97818.54;1721903;81;20902;-72
2022/10/03 08:22:32;;;;;;;4.60;1.32;;;;;;;18.66;54.61;97810.09;1722041;81;27024;-74
2022/10/03 08:25:48;;;;;;;3.52;1.60;;;;;;;18.53;54.19;97813.78;1721907;81;20867;-74
2022/10/03 08:28:40;;;;;;;4.35;1.95;;;;;;;18.47;54.34;97819.14;1707482;81;20847;-72
2022/10/03 08:31:56;;;;;;;1.67;1.57;;;;;;;18.31;53.83;97813.36;1721907;81;21815;-70
2022/10/03 08:35:04;;;;;;;5.10;2.42;;;;;;;18.17;54.26;97815.42;1721900;81;21036;-72
2022/10/03 08:38:06;;;;;;;2.58;1.40;;;;;;;17.92;54.58;97811.99;1719069;81;21046;-74
2022/10/03 08:40:55;;;;;;;4.22;1.80;;;;;;;17.68;55.18;97820.93;1718119;83;21001;-72
2022/10/03 08:43:50;;;;;;;4.55;1.50;;;;;;;17.46;55.31;97821.51;1716083;82;20942;-72
2022/10/03 08:47:00;;;;;;;3.75;1.65;;;;;;;17.22;55.72;97816.14;1716213;83;21444;-72
2022/10/03 08:49:54;;;;;;;3.62;2.72;;;;;;;17.02;55.97;97818.61;1695011;82;20954;-72
2022/10/03 08:52:50;;;;;;;3.70;1.95;;;;;;;16.86;56.70;97816.27;1716780;83;20997;-73
2022/10/03 08:55:45;;;;;;;4.08;1.65;;;;;;;16.70;57.11;97822.51;1628873;87;21025;-73
2022/10/03 08:58:40;;;;;;;2.58;1.42;;;;;;;16.61;57.51;97813.24;1626093;87;21011;-73
2022/10/03 09:01:26;;;;;;;2.30;1.62;;;;;;;16.58;57.72;97816.45;1686530;82;21114;-73
2022/10/03 09:04:27;;;;;;;2.87;1.45;;;;;;;16.42;57.68;97817.27;1715905;83;21062;-71
2022/10/03 09:07:20;;;;;;;5.28;2.33;;;;;;;16.24;58.34;97802.23;1716466;82;20990;-73
2022/10/03 09:10:22;;;;;;;1.85;1.30;;;;;;;16.05;59.02;97808.41;1716550;83;20950;-72
2022/10/03 09:13:08;;;;;;;9.33;2.05;;;;;;;15.92;59.69;97815.45;1716499;82;21404;-72
2022/10/03 09:16:17;;;;;;;2.17;1.50;;;;;;;15.85;59.80;97812.09;1714871;83;21135;-73
2022/10/03 09:19:27;;;;;;;3.42;1.47;;;;;;;15.87;59.69;97810.53;1745242;80;20970;-73
2022/10/03 09:22:30;;;;;;;1.60;1.20;;;;;;;15.97;59.63;97810.16;1716562;83;20986;-72
2022/10/03 09:25:18;;;;;;;1.98;1.12;;;;;;;16.13;59.15;97796.45;1716411;83;20898;-71
2022/10/03 09:28:13;;;;;;;1.40;1.30;;;;;;;16.18;58.51;97801.89;1737263;81;20981;-72
2022/10/03 09:30:48;;;;;;;2.98;1.17;;;;;;;16.32;57.97;97800.47;1719556;82;21171;-75
2022/10/03 09:33:29;;;;;;;1.67;1.10;;;;;;;16.58;57.99;97788.27;1719392;83;20978;-73
2022/10/03 09:36:10;;;;;;;3.35;1.65;;;;;;;16.84;57.15;97790.73;1719486;82;21002;-71
2022/10/03 09:39:02;;;;;;;4.03;1.40;;;;;;;17.08;56.59;97795.56;1719298;82;20906;-72
2022/10/03 09:41:51;;;;;;;2.33;1.70;;;;;;;17.22;56.06;97790.09;1719562;82;20926;-72
2022/10/03 09:44:58;;;;;;;2.55;1.47;;;;;;;17.15;55.48;97784.08;1719523;82;21275;-71
2022/10/03 09:47:48;;;;;;;3.12;1.22;;;;;;;17.04;55.74;97783.72;1719399;82;20910;-73
2022/10/03 09:50:52;;;;;;;1.57;1.12;;;;;;;16.92;55.87;97783.02;1719519;82;21520;-73
2022/10/03 09:53:31;;;;;;;2.47;1.52;;;;;;;16.76;56.11;97782.59;1719640;83;21421;-73
2022/10/03 09:56:26;;;;;;;1.45;1.00;;;;;;;16.56;56.41;97793.05;1719370;82;20922;-72
2022/10/03 09:59:21;;;;;;;2.60;1.40;;;;;;;16.35;56.76;97791.93;1719573;82;21142;-73
2022/10/03 10:01:53;;;;;;;2.92;1.67;;;;;;;16.17;57.50;97780.14;1719366;82;20882;-74
2022/10/03 10:05:01;;;;;;;2.10;1.15;;;;;;;16.15;58.03;97783.60;1719495;82;21017;-72
2022/10/03 10:07:54;;;;;;;1.62;0.90;;;;;;;16.12;58.22;97780.06;1719405;83;20918;-71
2022/10/03 10:11:11;;;;;;;1.87;1.27;;;;;;;16.06;58.50;97781.86;1719596;82;21089;-71
2022/10/03 10:14:03;;;;;;;1.35;1.02;;;;;;;15.99;58.64;97774.52;1719305;82;21408;-73
2022/10/03 10:16:59;;;;;;;2.62;1.17;;;;;;;15.91;58.79;97768.75;1719248;82;21045;-73
2022/10/03 10:20:03;;;;;;;2.98;1.30;;;;;;;15.86;58.88;97782.90;1700938;83;21516;-73
2022/10/03 10:23:03;;;;;;;1.85;1.42;;;;;;;15.83;59.11;97778.02;1719343;82;20914;-71
2022/10/03 10:26:21;;;;;;;1.92;1.00;;;;;;;15.84;58.92;97782.34;1719399;82;20986;-73
2022/10/03 10:28:54;;;;;;;;;;;;;;;15.90;59.33;97774.64;1722015;82;21152;-74
2022/10/03 10:31:58;;;;;;;1.92;1.40;;;;;;;16.05;59.59;97769.52;1719323;82;20462;-71
2022/10/03 10:34:30;;;;;;;3.05;1.50;;;;;;;16.18;59.60;97759.50;1723058;82;21014;-72
2022/10/03 10:37:19;;;;;;;14.75;1.80;;;;;;;16.31;59.20;97746.55;1719330;82;21002;-72
2022/10/03 10:40:11;;;;;;;2.05;1.17;;;;;;;16.40;58.57;97753.09;1718578;82;21029;-77
2022/10/03 10:43:14;;;;;;;3.67;1.25;;;;;;;16.49;58.52;97746.77;1719274;82;21801;-73
2022/10/03 10:46:10;;;;;;;2.37;1.57;;;;;;;16.64;58.06;97748.32;1719279;82;21041;-73
2022/10/03 10:49:13;;;;;;;;;;;;;;;16.82;57.99;97742.63;1721871;82;21428;-74
2022/10/03 10:52:06;;;;;;;2.85;1.40;;;;;;;16.97;57.55;97745.47;1719319;82;20160;-74
2022/10/03 10:54:50;;;;;;;1.35;1.10;;;;;;;17.06;57.30;97724.34;1719306;82;21543;-71
2022/10/03 10:57:51;;;;;;;1.87;1.25;;;;;;;17.10;56.92;97736.23;1719501;82;21754;-73
2022/10/03 11:00:38;;;;;;;2.85;1.25;;;;;;;17.23;56.96;97731.78;1715454;82;21001;-72
2022/10/03 11:03:49;;;;;;;4.20;1.40;;;;;;;17.40;56.90;97724.94;1727346;82;20969;-72
2022/10/03 11:06:41;;;;;;;1.47;1.00;;;;;;;17.48;55.77;97727.16;1728188;80;20975;-73
2022/10/03 11:09:27;;;;;;;3.10;0.80;;;;;;;17.32;55.61;97723.52;1725571;82;21428;-71
2022/10/03 11:12:06;;;;;;;2.15;1.25;;;;;;;17.22;56.11;97716.72;1728558;82;21244;-75
2022/10/03 11:15:04;;;;;;;0.90;0.82;;;;;;;17.19;56.14;97724.75;1724672;82;21498;-73
2022/10/03 11:18:08;;;;;;;3.05;1.10;;;;;;;17.24;56.12;97719.42;1725034;82;21008;-74
2022/10/03 11:21:06;;;;;;;2.85;1.72;;;;;;;17.27;55.90;97708.17;1725091;82;20966;-74
2022/10/03 11:23:51;;;;;;;2.60;0.90;;;;;;;17.24;56.02;97713.23;1768120;81;20970;-74
2022/10/03 11:26:38;;;;;;;1.75;0.90;;;;;;;17.24;56.45;97715.92;1708505;82;21164;-73
2022/10/03 11:29:27;;;;;;;2.00;1.00;;;;;;;17.18;56.33;97703.53;1734807;82;21479;-73
2022/10/03 11:32:25;;;;;;;4.15;0.82;;;;;;;17.05;56.62;97700.70;1752220;82;21034;-73
2022/10/03 11:35:04;;;;;;;1.35;0.82;;;;;;;16.89;56.36;97714.25;1719684;82;20945;-74
2022/10/03 11:38:06;;;;;;;0.70;0.70;;;;;;;16.66;56.49;97708.08;1702575;81;21010;-74
2022/10/03 11:41:03;;;;;;;1.47;0.90;;;;;;;16.46;57.02;97705.66;1737991;82;22170;-73
2022/10/03 11:44:11;;;;;;;2.65;1.30;;;;;;;16.30;57.57;97702.50;1740869;82;20899;-72
2022/10/03 11:46:46;;;;;;;1.87;0.80;;;;;;;16.08;58.61;97704.63;1740855;82;25450;-72
2022/10/03 11:49:51;;;;;;;1.52;1.00;;;;;;;15.91;60.17;97707.08;1713915;83;21006;-73
2022/10/03 11:52:34;;;;;;;1.17;0.90;;;;;;;15.82;61.76;97701.34;1725711;82;21562;-73
2022/10/03 11:55:21;;;;;;;1.50;0.60;;;;;;;15.72;63.03;97714.56;1748556;82;21149;-72
2022/10/03 11:57:56;;;;;;;1.50;0.90;;;;;;;15.65;63.70;97721.16;1719338;82;21567;-74
2022/10/03 12:00:24;;;;;;;3.37;1.07;;;;;;;15.57;64.36;97712.18;1705965;82;20922;-72
2022/10/03 12:03:14;;;;;;;1.05;0.68;;;;;;;15.50;64.82;97711.55;1719251;82;21010;-73
2022/10/03 12:09:04;;;;;;;1.50;0.90;;;;;;;15.38;65.53;97710.27;1719343;82;21277;-71
2022/10/03 12:11:57;;;;;;;0.80;0.80;;;;;;;15.29;66.29;97710.38;1719415;82;21025;-72
2022/10/03 12:14:28;;;;;;;3.55;1.10;;;;;;;15.18;67.52;97705.89;1719297;82;20985;-72
2022/10/03 12:17:25;;;;;;;1.35;1.25;;;;;;;15.08;68.51;97720.45;1719208;82;21022;-73
2022/10/03 12:20:33;;;;;;;1.30;1.20;;;;;;;15.01;69.07;97716.59;1719519;82;21021;-73
2022/10/03 12:23:54;;;;;;;1.62;1.10;;;;;;;14.95;69.55;97716.72;1719306;82;21204;-72
2022/10/03 12:26:36;;;;;;;1.40;0.80;;;;;;;14.94;70.03;97712.44;1719267;82;21151;-73
2022/10/03 12:29:03;;;;;;;0.70;0.70;;;;;;;14.94;70.09;97707.09;1708894;82;21042;-74
2022/10/03 12:31:40;;;;;;;0.75;0.70;;;;;;;14.97;70.36;97707.40;1719483;82;20930;-73
2022/10/03 12:34:32;;;;;;;2.25;0.70;;;;;;;15.03;70.17;97692.24;1696789;83;21035;-74
2022/10/03 12:37:42;;;;;;;4.33;0.88;;;;;;;15.10;70.01;97687.02;1719363;82;21194;-74
2022/10/03 12:40:26;;;;;;;1.67;0.72;;;;;;;15.05;70.11;97688.27;1721857;81;21001;-73
2022/10/03 12:43:07;;;;;;;1.10;0.93;;;;;;;14.92;70.48;97696.59;1718493;83;21034;-74
2022/10/03 12:45:46;;;;;;;0.98;0.85;;;;;;;14.84;70.97;97692.45;1721934;81;20998;-72
2022/10/03 12:48:35;;;;;;;1.62;0.90;;;;;;;14.84;71.19;97695.12;1721916;81;21061;-73
2022/10/03 12:51:12;;;;;;;2.08;0.80;;;;;;;14.82;71.28;97685.19;1721614;81;21218;-73
2022/10/03 12:53:57;;;;;;;0.60;0.60;;;;;;;14.81;71.42;97683.55;1718656;81;20971;-74
2022/10/03 12:56:34;;;;;;;0.65;0.65;;;;;;;14.82;71.58;97686.53;1721575;81;20942;-72
2022/10/03 12:59:24;;;;;;;0.80;0.60;;;;;;;14.78;71.74;97676.55;1721955;81;21021;-72
2022/10/03 13:02:23;;;;;;;1.10;0.90;;;;;;;14.72;71.87;97676.98;1721828;81;21099;-73
2022/10/03 13:05:25;;;;;;;0.82;0.82;;;;;;;14.67;71.96;97674.21;1722002;81;21251;-75
2022/10/03 13:08:12;;;;;;;1.80;0.82;;;;;;;14.65;72.26;97676.84;1721489;81;21009;-72
2022/10/03 13:10:44;;;;;;;0.40;0.40;;;;;;;14.52;72.74;97671.78;1722144;81;20930;-73
2022/10/03 13:13:19;;;;;;;4.78;0.85;;;;;;;14.45;73.39;97669.74;1721968;81;21021;-72
2022/10/03 13:16:20;;;;;;;2.65;1.00;;;;;;;14.44;73.49;97670.30;1721846;81;21006;-72
2022/10/03 13:18:58;;;;;;;1.20;0.88;;;;;;;14.43;73.51;97655.80;1721959;81;21471;-73
2022/10/03 13:21:55;;;;;;;0.98;0.90;;;;;;;14.42;73.73;97667.54;1721784;81;20997;-74
2022/10/03 13:24:36;;;;;;;1.57;0.88;;;;;;;14.39;73.69;97665.37;1722176;81;21340;-75
2022/10/03 13:27:15;;;;;;;0.75;0.65;;;;;;;14.42;74.01;97652.83;1722015;81;21519;-74
2022/10/03 13:29:52;;;;;;;1.45;0.68;;;;;;;14.47;74.18;97645.71;1722019;81;20986;-73
2022/10/03 13:32:33;;;;;;;1.32;0.60;;;;;;;14.49;74.02;97645.49;1722063;81;21551;-73
2022/10/03 13:38:20;;;;;;;2.17;0.50;;;;;;;14.63;73.97;97648.97;1722035;81;20950;-75
2022/10/03 13:40:58;;;;;;;0.85;0.70;;;;;;;14.68;73.40;97647.72;1692020;81;20954;-73
2022/10/03 13:43:36;;;;;;;2.10;0.70;;;;;;;14.70;73.12;97645.61;1698308;81;20997;-71